SMJPSOCA

Guest
Details From SMJP - Paramaribo Johan A Pengel Intl
To SOCA - Cayenne Rochambeau
Flight Number -
Tags decoded
Created
Modified
Stats Distance 173 nm / 321 km
Max Altitude 0 ft / 0 m
Waypoints 2
Social Downloads 1
Likes 0
Share VATSIM

Download

Looking for another format? Having issues loading an existing format? Contact us
Advertisement - Login to hide

Notes

Requested: SMJP D100K GAVOT SOCA Unmatched points: D100K GAVOT

Route

SMJP SOCA

ID Type Via Altitude Latitude Longitude Leg Dist Tot Dist Heading (true) Name
O SMJP APT - 0 ft / 0 m 5.45283˚ -55.18778˚ - 0 nm - Paramaribo Johan A Pengel Intl
O SOCA APT - 0 ft / 0 m 4.81981˚ -52.36045˚ 173 nm 173 nm 103° / 103° Cayenne Rochambeau

Altitude Profile

Advertisement - Login to hide

Weather


0- 5 10 15 20 25 30 35+ Temperature / ° C

Clouds and Precipitation
Forecast for 2018-05-22 06:00 UTC. Updated 2 hours ago

Ground ~20,000 ft ~40,000 ft Winds

SMJP

Details ICAO SMJP (PBM)
Name Paramaribo Johan A Pengel Intl
Region Suriname
Timezone America/Paramaribo (UTC-3.0)
Stats Elevation 59 ft / 18 m (AMSL)
Location 5.452831° -55.187783°
Runways 1
Magnetic Variation 17.564° W

METAR

SMJP 220700Z 00000KT CAVOK 24/23 Q1011 NOSIG

Decode

TAF

Not found

Departure Runways

ID Width Length Bearing (true) Bearing (mag) Surface Threshold Offset Overrun Length
11 148 ft / 45 m 11,415 ft / 3,479 m 89.66° 107.22° Concrete 0 ft / 0 m 164 ft / 50 m
29 148 ft / 45 m 11,415 ft / 3,479 m 269.67° 287.23° Concrete 0 ft / 0 m 197 ft / 60 m

SOCA

Details ICAO SOCA (CAY)
Name Cayenne Rochambeau
Region French Guiana
Timezone America/Cayenne (UTC-3.0)
Stats Elevation 26 ft / 8 m (AMSL)
Location 4.819807° -52.360446°
Runways 1
Magnetic Variation 18.398° W

METAR

SOCA 220700Z AUTO 03005KT 9999 FEW024/// SCT032/// BKN042/// ///CB 26/23 Q1010 TEMPO SHRA

Decode

TAF

TAF SOCA 220500Z 2206/2306 VRB02KT 9999 SCT020 BKN050 PROB30 TEMPO 2206/2216 SHRA FEW012TCU FM221400 07010KT 9999 SCT023 BKN045 PROB40 TEMPO 2216/2306 3000 SHRA FEW012TCU PROB30 TEMPO 2222/2306 TSRA FEW010CB

Decode

Destination Runways

ID Width Length Bearing (true) Bearing (mag) Surface Threshold Offset Overrun Length
08 148 ft / 45 m 10,489 ft / 3,197 m 65.20° 83.60° Asphalt 0 ft / 0 m 244 ft / 74 m
26 148 ft / 45 m 10,489 ft / 3,197 m 245.20° 263.60° Asphalt 0 ft / 0 m 0 ft / 0 m

Popular Alternatives